sensor_id;sensor_type;location;lat;lon;timestamp;P1;durP1;ratioP1;P2;durP2;ratioP2
3309;SDS011;1667;53.238;10.394;2023-05-20T00:02:20;1.20;;;1.10;;
3309;SDS011;1667;53.238;10.394;2023-05-20T00:07:18;1.27;;;1.07;;
3309;SDS011;1667;53.238;10.394;2023-05-20T00:12:17;0.97;;;0.97;;
3309;SDS011;1667;53.238;10.394;2023-05-20T00:17:15;2.30;;;1.30;;
3309;SDS011;1667;53.238;10.394;2023-05-20T00:22:15;1.83;;;1.00;;
3309;SDS011;1667;53.238;10.394;2023-05-20T00:27:14;1.10;;;0.93;;
3309;SDS011;1667;53.238;10.394;2023-05-20T00:32:13;4.20;;;1.20;;
3309;SDS011;1667;53.238;10.394;2023-05-20T00:37:11;2.17;;;1.20;;
3309;SDS011;1667;53.238;10.394;2023-05-20T00:42:18;1.47;;;0.93;;
3309;SDS011;1667;53.238;10.394;2023-05-20T00:47:19;1.40;;;1.10;;
3309;SDS011;1667;53.238;10.394;2023-05-20T00:52:20;2.00;;;0.90;;
3309;SDS011;1667;53.238;10.394;2023-05-20T00:57:20;2.03;;;1.23;;
3309;SDS011;1667;53.238;10.394;2023-05-20T01:02:19;1.37;;;1.03;;
3309;SDS011;1667;53.238;10.394;2023-05-20T01:07:19;1.23;;;1.13;;
3309;SDS011;1667;53.238;10.394;2023-05-20T01:12:19;1.50;;;1.30;;
3309;SDS011;1667;53.238;10.394;2023-05-20T01:17:23;0.90;;;0.90;;
3309;SDS011;1667;53.238;10.394;2023-05-20T01:22:25;1.40;;;1.23;;
3309;SDS011;1667;53.238;10.394;2023-05-20T01:27:24;2.57;;;0.90;;
3309;SDS011;1667;53.238;10.394;2023-05-20T01:32:24;1.13;;;1.07;;
3309;SDS011;1667;53.238;10.394;2023-05-20T01:37:28;1.60;;;1.27;;
3309;SDS011;1667;53.238;10.394;2023-05-20T01:42:28;1.47;;;1.10;;
3309;SDS011;1667;53.238;10.394;2023-05-20T01:47:27;2.10;;;1.30;;
3309;SDS011;1667;53.238;10.394;2023-05-20T01:52:25;1.77;;;1.20;;
3309;SDS011;1667;53.238;10.394;2023-05-20T01:57:27;1.30;;;1.00;;
3309;SDS011;1667;53.238;10.394;2023-05-20T02:02:26;1.30;;;0.87;;
3309;SDS011;1667;53.238;10.394;2023-05-20T02:07:25;0.70;;;0.70;;
3309;SDS011;1667;53.238;10.394;2023-05-20T02:12:25;1.57;;;1.20;;
3309;SDS011;1667;53.238;10.394;2023-05-20T02:17:23;1.97;;;0.93;;
3309;SDS011;1667;53.238;10.394;2023-05-20T02:22:22;4.93;;;1.50;;
3309;SDS011;1667;53.238;10.394;2023-05-20T02:27:21;1.47;;;1.00;;
3309;SDS011;1667;53.238;10.394;2023-05-20T02:32:21;0.80;;;0.80;;
3309;SDS011;1667;53.238;10.394;2023-05-20T02:37:23;1.00;;;1.00;;
3309;SDS011;1667;53.238;10.394;2023-05-20T02:42:22;2.80;;;1.37;;
3309;SDS011;1667;53.238;10.394;2023-05-20T02:47:22;1.90;;;1.13;;
3309;SDS011;1667;53.238;10.394;2023-05-20T02:52:22;1.40;;;1.00;;
3309;SDS011;1667;53.238;10.394;2023-05-20T02:57:20;1.53;;;1.13;;
3309;SDS011;1667;53.238;10.394;2023-05-20T03:02:18;1.53;;;1.37;;
3309;SDS011;1667;53.238;10.394;2023-05-20T03:07:20;1.17;;;1.07;;
3309;SDS011;1667;53.238;10.394;2023-05-20T03:12:19;2.67;;;1.17;;
3309;SDS011;1667;53.238;10.394;2023-05-20T03:17:17;1.10;;;1.00;;
3309;SDS011;1667;53.238;10.394;2023-05-20T03:22:16;2.40;;;1.10;;
3309;SDS011;1667;53.238;10.394;2023-05-20T03:27:16;1.03;;;0.93;;
3309;SDS011;1667;53.238;10.394;2023-05-20T03:32:15;2.60;;;1.50;;
3309;SDS011;1667;53.238;10.394;2023-05-20T03:37:13;1.00;;;1.00;;
3309;SDS011;1667;53.238;10.394;2023-05-20T03:42:12;2.17;;;1.97;;
3309;SDS011;1667;53.238;10.394;2023-05-20T03:47:12;2.63;;;0.90;;
3309;SDS011;1667;53.238;10.394;2023-05-20T03:52:11;0.83;;;0.83;;
3309;SDS011;1667;53.238;10.394;2023-05-20T03:57:10;3.27;;;1.73;;
3309;SDS011;1667;53.238;10.394;2023-05-20T04:02:08;1.30;;;1.20;;
3309;SDS011;1667;53.238;10.394;2023-05-20T04:07:09;1.60;;;1.00;;
3309;SDS011;1667;53.238;10.394;2023-05-20T04:12:08;4.60;;;1.47;;
3309;SDS011;1667;53.238;10.394;2023-05-20T04:17:07;3.33;;;1.17;;
3309;SDS011;1667;53.238;10.394;2023-05-20T04:22:06;1.10;;;1.00;;
3309;SDS011;1667;53.238;10.394;2023-05-20T04:27:06;2.37;;;1.40;;
3309;SDS011;1667;53.238;10.394;2023-05-20T04:32:05;1.20;;;1.07;;
3309;SDS011;1667;53.238;10.394;2023-05-20T04:37:07;2.10;;;1.13;;
3309;SDS011;1667;53.238;10.394;2023-05-20T04:42:07;1.97;;;1.20;;
3309;SDS011;1667;53.238;10.394;2023-05-20T04:47:06;2.97;;;1.50;;
3309;SDS011;1667;53.238;10.394;2023-05-20T04:52:06;2.77;;;1.13;;
3309;SDS011;1667;53.238;10.394;2023-05-20T04:57:09;1.67;;;1.20;;
3309;SDS011;1667;53.238;10.394;2023-05-20T05:02:08;1.20;;;1.10;;
3309;SDS011;1667;53.238;10.394;2023-05-20T05:07:06;2.07;;;1.10;;
3309;SDS011;1667;53.238;10.394;2023-05-20T05:12:06;3.00;;;1.40;;
3309;SDS011;1667;53.238;10.394;2023-05-20T05:17:06;1.20;;;1.10;;
3309;SDS011;1667;53.238;10.394;2023-05-20T05:22:05;1.20;;;1.10;;
3309;SDS011;1667;53.238;10.394;2023-05-20T05:27:05;1.13;;;1.03;;
3309;SDS011;1667;53.238;10.394;2023-05-20T05:32:04;1.40;;;1.30;;
3309;SDS011;1667;53.238;10.394;2023-05-20T05:37:04;3.40;;;1.40;;
3309;SDS011;1667;53.238;10.394;2023-05-20T05:42:03;2.90;;;1.20;;
3309;SDS011;1667;53.238;10.394;2023-05-20T05:47:03;1.70;;;1.40;;
3309;SDS011;1667;53.238;10.394;2023-05-20T05:52:04;2.10;;;1.10;;
3309;SDS011;1667;53.238;10.394;2023-05-20T05:57:04;2.37;;;1.37;;
3309;SDS011;1667;53.238;10.394;2023-05-20T06:02:05;3.13;;;1.73;;
3309;SDS011;1667;53.238;10.394;2023-05-20T06:07:06;1.30;;;1.20;;
3309;SDS011;1667;53.238;10.394;2023-05-20T06:12:05;1.50;;;1.40;;
3309;SDS011;1667;53.238;10.394;2023-05-20T06:17:05;1.40;;;1.30;;
3309;SDS011;1667;53.238;10.394;2023-05-20T06:22:04;2.87;;;2.10;;
3309;SDS011;1667;53.238;10.394;2023-05-20T06:27:03;1.50;;;1.33;;
3309;SDS011;1667;53.238;10.394;2023-05-20T06:32:02;2.40;;;1.80;;
3309;SDS011;1667;53.238;10.394;2023-05-20T06:37:02;1.40;;;1.30;;
3309;SDS011;1667;53.238;10.394;2023-05-20T06:42:02;1.73;;;1.40;;
3309;SDS011;1667;53.238;10.394;2023-05-20T06:47:04;3.60;;;1.10;;
3309;SDS011;1667;53.238;10.394;2023-05-20T06:52:06;3.33;;;1.80;;
3309;SDS011;1667;53.238;10.394;2023-05-20T06:57:04;2.60;;;1.50;;
3309;SDS011;1667;53.238;10.394;2023-05-20T07:02:03;1.60;;;1.50;;
3309;SDS011;1667;53.238;10.394;2023-05-20T07:07:02;2.40;;;1.80;;
3309;SDS011;1667;53.238;10.394;2023-05-20T07:12:03;2.50;;;1.70;;
3309;SDS011;1667;53.238;10.394;2023-05-20T07:17:03;1.50;;;1.40;;
3309;SDS011;1667;53.238;10.394;2023-05-20T07:22:02;1.70;;;1.60;;
3309;SDS011;1667;53.238;10.394;2023-05-20T07:27:25;2.80;;;1.50;;
3309;SDS011;1667;53.238;10.394;2023-05-20T07:32:23;2.37;;;2.17;;
3309;SDS011;1667;53.238;10.394;2023-05-20T07:37:22;1.87;;;1.77;;
3309;SDS011;1667;53.238;10.394;2023-05-20T07:42:21;2.20;;;1.70;;
3309;SDS011;1667;53.238;10.394;2023-05-20T07:47:27;3.20;;;1.80;;
3309;SDS011;1667;53.238;10.394;2023-05-20T07:52:26;1.97;;;1.73;;
3309;SDS011;1667;53.238;10.394;2023-05-20T07:57:26;1.93;;;1.70;;
3309;SDS011;1667;53.238;10.394;2023-05-20T08:02:26;3.23;;;1.63;;
3309;SDS011;1667;53.238;10.394;2023-05-20T08:07:25;2.07;;;1.43;;
3309;SDS011;1667;53.238;10.394;2023-05-20T08:12:24;2.83;;;1.43;;
3309;SDS011;1667;53.238;10.394;2023-05-20T08:17:22;2.23;;;1.60;;
3309;SDS011;1667;53.238;10.394;2023-05-20T08:22:23;5.47;;;1.70;;
3309;SDS011;1667;53.238;10.394;2023-05-20T08:27:22;2.60;;;1.70;;
3309;SDS011;1667;53.238;10.394;2023-05-20T08:32:20;1.73;;;1.63;;
3309;SDS011;1667;53.238;10.394;2023-05-20T08:37:19;1.93;;;1.80;;
3309;SDS011;1667;53.238;10.394;2023-05-20T08:42:20;1.60;;;1.50;;
3309;SDS011;1667;53.238;10.394;2023-05-20T08:47:21;5.47;;;1.63;;
3309;SDS011;1667;53.238;10.394;2023-05-20T08:52:20;2.20;;;1.60;;
3309;SDS011;1667;53.238;10.394;2023-05-20T08:57:20;1.70;;;1.60;;
3309;SDS011;1667;53.238;10.394;2023-05-20T09:02:19;1.43;;;1.33;;
3309;SDS011;1667;53.238;10.394;2023-05-20T09:07:25;1.50;;;1.40;;
3309;SDS011;1667;53.238;10.394;2023-05-20T09:12:25;2.50;;;2.00;;
3309;SDS011;1667;53.238;10.394;2023-05-20T09:17:24;2.30;;;1.40;;
3309;SDS011;1667;53.238;10.394;2023-05-20T09:22:23;6.23;;;1.40;;
3309;SDS011;1667;53.238;10.394;2023-05-20T09:27:22;1.80;;;1.70;;
3309;SDS011;1667;53.238;10.394;2023-05-20T09:32:22;2.30;;;1.47;;
3309;SDS011;1667;53.238;10.394;2023-05-20T09:37:23;1.40;;;1.30;;
3309;SDS011;1667;53.238;10.394;2023-05-20T09:42:25;1.83;;;1.70;;
3309;SDS011;1667;53.238;10.394;2023-05-20T09:47:26;1.60;;;1.50;;
3309;SDS011;1667;53.238;10.394;2023-05-20T09:52:25;1.77;;;1.40;;
3309;SDS011;1667;53.238;10.394;2023-05-20T09:57:24;3.43;;;1.70;;
3309;SDS011;1667;53.238;10.394;2023-05-20T10:02:23;2.00;;;1.70;;
3309;SDS011;1667;53.238;10.394;2023-05-20T10:07:30;1.53;;;1.40;;
3309;SDS011;1667;53.238;10.394;2023-05-20T10:12:48;1.57;;;1.40;;
3309;SDS011;1667;53.238;10.394;2023-05-20T10:17:57;1.30;;;1.20;;
3309;SDS011;1667;53.238;10.394;2023-05-20T10:23:02;2.30;;;2.10;;
3309;SDS011;1667;53.238;10.394;2023-05-20T10:28:07;3.60;;;1.40;;
3309;SDS011;1667;53.238;10.394;2023-05-20T10:33:05;1.90;;;1.60;;
3309;SDS011;1667;53.238;10.394;2023-05-20T10:38:09;1.80;;;1.50;;
3309;SDS011;1667;53.238;10.394;2023-05-20T10:43:08;3.00;;;2.43;;
3309;SDS011;1667;53.238;10.394;2023-05-20T10:48:07;2.17;;;1.97;;
3309;SDS011;1667;53.238;10.394;2023-05-20T10:53:20;1.43;;;1.23;;
3309;SDS011;1667;53.238;10.394;2023-05-20T10:58:35;1.97;;;1.37;;
3309;SDS011;1667;53.238;10.394;2023-05-20T11:03:35;1.47;;;1.17;;
3309;SDS011;1667;53.238;10.394;2023-05-20T11:08:37;1.43;;;1.33;;
3309;SDS011;1667;53.238;10.394;2023-05-20T11:13:35;1.50;;;1.40;;
3309;SDS011;1667;53.238;10.394;2023-05-20T11:18:42;3.67;;;1.83;;
3309;SDS011;1667;53.238;10.394;2023-05-20T11:23:40;2.47;;;1.63;;
3309;SDS011;1667;53.238;10.394;2023-05-20T11:28:38;2.20;;;1.63;;
3309;SDS011;1667;53.238;10.394;2023-05-20T11:33:42;1.60;;;1.50;;
3309;SDS011;1667;53.238;10.394;2023-05-20T11:38:40;2.07;;;1.87;;
3309;SDS011;1667;53.238;10.394;2023-05-20T11:43:39;3.87;;;1.70;;
3309;SDS011;1667;53.238;10.394;2023-05-20T11:48:38;3.33;;;1.90;;
3309;SDS011;1667;53.238;10.394;2023-05-20T11:53:40;2.60;;;1.70;;
3309;SDS011;1667;53.238;10.394;2023-05-20T11:58:39;2.10;;;1.90;;
3309;SDS011;1667;53.238;10.394;2023-05-20T12:03:40;2.27;;;1.90;;
3309;SDS011;1667;53.238;10.394;2023-05-20T12:08:40;3.13;;;1.93;;
3309;SDS011;1667;53.238;10.394;2023-05-20T12:13:39;2.67;;;2.10;;
3309;SDS011;1667;53.238;10.394;2023-05-20T12:18:37;2.37;;;2.27;;
3309;SDS011;1667;53.238;10.394;2023-05-20T12:23:36;3.50;;;2.37;;
3309;SDS011;1667;53.238;10.394;2023-05-20T12:28:35;1.97;;;1.80;;
3309;SDS011;1667;53.238;10.394;2023-05-20T12:33:34;3.67;;;2.30;;
3309;SDS011;1667;53.238;10.394;2023-05-20T12:38:32;4.97;;;2.60;;
3309;SDS011;1667;53.238;10.394;2023-05-20T12:43:31;2.13;;;1.97;;
3309;SDS011;1667;53.238;10.394;2023-05-20T12:48:33;2.80;;;2.60;;
3309;SDS011;1667;53.238;10.394;2023-05-20T12:53:32;3.90;;;2.60;;
3309;SDS011;1667;53.238;10.394;2023-05-20T12:58:31;3.13;;;2.40;;
3309;SDS011;1667;53.238;10.394;2023-05-20T13:03:30;4.50;;;2.60;;
3309;SDS011;1667;53.238;10.394;2023-05-20T13:08:30;2.90;;;2.30;;
3309;SDS011;1667;53.238;10.394;2023-05-20T13:20:24;2.67;;;2.47;;
3309;SDS011;1667;53.238;10.394;2023-05-20T13:25:24;2.67;;;2.47;;
3309;SDS011;1667;53.238;10.394;2023-05-20T13:30:23;3.23;;;2.90;;
3309;SDS011;1667;53.238;10.394;2023-05-20T13:35:22;2.70;;;2.50;;
3309;SDS011;1667;53.238;10.394;2023-05-20T13:40:20;2.80;;;2.60;;
3309;SDS011;1667;53.238;10.394;2023-05-20T13:45:20;3.17;;;2.90;;
3309;SDS011;1667;53.238;10.394;2023-05-20T13:50:19;2.60;;;2.40;;
3309;SDS011;1667;53.238;10.394;2023-05-20T13:55:18;4.43;;;2.70;;
3309;SDS011;1667;53.238;10.394;2023-05-20T14:00:21;2.33;;;2.13;;
3309;SDS011;1667;53.238;10.394;2023-05-20T14:05:19;2.57;;;2.37;;
3309;SDS011;1667;53.238;10.394;2023-05-20T14:10:18;2.57;;;2.00;;
3309;SDS011;1667;53.238;10.394;2023-05-20T14:15:17;2.70;;;2.50;;
3309;SDS011;1667;53.238;10.394;2023-05-20T14:20:18;5.93;;;2.30;;
3309;SDS011;1667;53.238;10.394;2023-05-20T14:25:16;3.60;;;2.57;;
3309;SDS011;1667;53.238;10.394;2023-05-20T14:30:15;2.80;;;2.20;;
3309;SDS011;1667;53.238;10.394;2023-05-20T14:35:14;2.60;;;2.20;;
3309;SDS011;1667;53.238;10.394;2023-05-20T14:40:15;3.00;;;1.77;;
3309;SDS011;1667;53.238;10.394;2023-05-20T14:45:14;2.40;;;2.20;;
3309;SDS011;1667;53.238;10.394;2023-05-20T14:50:13;2.33;;;2.13;;
3309;SDS011;1667;53.238;10.394;2023-05-20T14:55:12;2.60;;;2.40;;
3309;SDS011;1667;53.238;10.394;2023-05-20T15:00:12;2.27;;;2.07;;
3309;SDS011;1667;53.238;10.394;2023-05-20T15:05:11;2.00;;;1.80;;
3309;SDS011;1667;53.238;10.394;2023-05-20T15:10:09;4.60;;;2.40;;
3309;SDS011;1667;53.238;10.394;2023-05-20T15:15:08;2.30;;;2.10;;
3309;SDS011;1667;53.238;10.394;2023-05-20T15:20:09;2.50;;;2.30;;
3309;SDS011;1667;53.238;10.394;2023-05-20T15:25:08;3.10;;;2.30;;
3309;SDS011;1667;53.238;10.394;2023-05-20T15:30:07;2.37;;;2.27;;
3309;SDS011;1667;53.238;10.394;2023-05-20T15:35:06;4.00;;;2.47;;
3309;SDS011;1667;53.238;10.394;2023-05-20T15:40:07;1.90;;;1.80;;
3309;SDS011;1667;53.238;10.394;2023-05-20T15:45:07;2.47;;;2.27;;
3309;SDS011;1667;53.238;10.394;2023-05-20T15:50:08;3.10;;;2.70;;
3309;SDS011;1667;53.238;10.394;2023-05-20T15:55:08;4.30;;;2.20;;
3309;SDS011;1667;53.238;10.394;2023-05-20T16:00:07;3.20;;;2.57;;
3309;SDS011;1667;53.238;10.394;2023-05-20T16:05:08;3.60;;;3.03;;
3309;SDS011;1667;53.238;10.394;2023-05-20T16:10:08;3.87;;;2.53;;
3309;SDS011;1667;53.238;10.394;2023-05-20T16:15:07;3.50;;;3.20;;
3309;SDS011;1667;53.238;10.394;2023-05-20T16:20:08;3.80;;;2.90;;
3309;SDS011;1667;53.238;10.394;2023-05-20T16:25:07;2.83;;;2.63;;
3309;SDS011;1667;53.238;10.394;2023-05-20T16:30:08;3.00;;;2.80;;
3309;SDS011;1667;53.238;10.394;2023-05-20T16:35:09;4.57;;;2.63;;
3309;SDS011;1667;53.238;10.394;2023-05-20T16:40:11;4.33;;;2.67;;
3309;SDS011;1667;53.238;10.394;2023-05-20T16:45:10;4.13;;;3.20;;
3309;SDS011;1667;53.238;10.394;2023-05-20T16:50:10;4.00;;;3.13;;
3309;SDS011;1667;53.238;10.394;2023-05-20T16:55:09;4.57;;;2.80;;
3309;SDS011;1667;53.238;10.394;2023-05-20T17:00:09;3.27;;;2.50;;
3309;SDS011;1667;53.238;10.394;2023-05-20T17:05:10;4.10;;;3.50;;
3309;SDS011;1667;53.238;10.394;2023-05-20T17:10:12;5.47;;;3.00;;
3309;SDS011;1667;53.238;10.394;2023-05-20T17:15:17;4.50;;;3.10;;
3309;SDS011;1667;53.238;10.394;2023-05-20T17:20:20;4.23;;;3.03;;
3309;SDS011;1667;53.238;10.394;2023-05-20T17:25:19;4.20;;;2.77;;
3309;SDS011;1667;53.238;10.394;2023-05-20T17:30:17;3.47;;;3.17;;
3309;SDS011;1667;53.238;10.394;2023-05-20T17:35:16;3.40;;;3.10;;
3309;SDS011;1667;53.238;10.394;2023-05-20T17:40:17;3.50;;;3.20;;
3309;SDS011;1667;53.238;10.394;2023-05-20T17:45:15;4.73;;;3.47;;
3309;SDS011;1667;53.238;10.394;2023-05-20T17:50:14;3.60;;;3.30;;
3309;SDS011;1667;53.238;10.394;2023-05-20T17:55:13;6.47;;;3.67;;
3309;SDS011;1667;53.238;10.394;2023-05-20T18:00:15;3.70;;;3.40;;
3309;SDS011;1667;53.238;10.394;2023-05-20T18:05:17;4.27;;;3.60;;
3309;SDS011;1667;53.238;10.394;2023-05-20T18:10:15;5.93;;;4.20;;
3309;SDS011;1667;53.238;10.394;2023-05-20T18:15:15;4.00;;;3.60;;
3309;SDS011;1667;53.238;10.394;2023-05-20T18:20:15;3.73;;;3.33;;
3309;SDS011;1667;53.238;10.394;2023-05-20T18:25:13;4.10;;;3.23;;
3309;SDS011;1667;53.238;10.394;2023-05-20T18:30:12;3.20;;;2.97;;
3309;SDS011;1667;53.238;10.394;2023-05-20T18:35:12;3.93;;;3.53;;
3309;SDS011;1667;53.238;10.394;2023-05-20T18:40:11;5.13;;;4.50;;
3309;SDS011;1667;53.238;10.394;2023-05-20T18:45:10;6.03;;;3.87;;
3309;SDS011;1667;53.238;10.394;2023-05-20T18:50:09;4.10;;;3.70;;
3309;SDS011;1667;53.238;10.394;2023-05-20T18:55:09;4.90;;;4.40;;
3309;SDS011;1667;53.238;10.394;2023-05-20T19:00:08;3.73;;;3.37;;
3309;SDS011;1667;53.238;10.394;2023-05-20T19:05:10;3.93;;;3.53;;
3309;SDS011;1667;53.238;10.394;2023-05-20T19:10:10;4.27;;;3.83;;
3309;SDS011;1667;53.238;10.394;2023-05-20T19:15:10;6.57;;;3.37;;
3309;SDS011;1667;53.238;10.394;2023-05-20T19:20:10;4.50;;;4.10;;
3309;SDS011;1667;53.238;10.394;2023-05-20T19:25:11;6.63;;;4.13;;
3309;SDS011;1667;53.238;10.394;2023-05-20T19:30:10;4.07;;;3.67;;
3309;SDS011;1667;53.238;10.394;2023-05-20T19:35:09;4.43;;;4.03;;
3309;SDS011;1667;53.238;10.394;2023-05-20T19:40:08;4.93;;;4.43;;
3309;SDS011;1667;53.238;10.394;2023-05-20T19:45:09;5.77;;;5.20;;
3309;SDS011;1667;53.238;10.394;2023-05-20T19:50:08;6.03;;;4.80;;
3309;SDS011;1667;53.238;10.394;2023-05-20T19:55:07;8.60;;;5.17;;
3309;SDS011;1667;53.238;10.394;2023-05-20T20:00:07;4.80;;;4.30;;
3309;SDS011;1667;53.238;10.394;2023-05-20T20:05:10;6.67;;;4.80;;
3309;SDS011;1667;53.238;10.394;2023-05-20T20:10:09;6.70;;;4.00;;
3309;SDS011;1667;53.238;10.394;2023-05-20T20:15:10;8.17;;;4.60;;
3309;SDS011;1667;53.238;10.394;2023-05-20T20:20:09;5.00;;;4.50;;
3309;SDS011;1667;53.238;10.394;2023-05-20T20:25:09;5.80;;;4.80;;
3309;SDS011;1667;53.238;10.394;2023-05-20T20:30:11;8.70;;;6.30;;
3309;SDS011;1667;53.238;10.394;2023-05-20T20:35:10;5.80;;;5.00;;
3309;SDS011;1667;53.238;10.394;2023-05-20T20:40:10;5.87;;;4.83;;
3309;SDS011;1667;53.238;10.394;2023-05-20T20:45:11;6.70;;;4.60;;
3309;SDS011;1667;53.238;10.394;2023-05-20T20:50:10;5.67;;;5.07;;
3309;SDS011;1667;53.238;10.394;2023-05-20T20:55:09;5.43;;;4.43;;
3309;SDS011;1667;53.238;10.394;2023-05-20T21:00:07;5.00;;;4.50;;
3309;SDS011;1667;53.238;10.394;2023-05-20T21:05:13;5.60;;;5.10;;
3309;SDS011;1667;53.238;10.394;2023-05-20T21:10:12;8.53;;;5.20;;
3309;SDS011;1667;53.238;10.394;2023-05-20T21:15:11;5.07;;;4.40;;
3309;SDS011;1667;53.238;10.394;2023-05-20T21:20:10;6.23;;;4.80;;
3309;SDS011;1667;53.238;10.394;2023-05-20T21:25:11;5.90;;;5.30;;
3309;SDS011;1667;53.238;10.394;2023-05-20T21:30:10;4.83;;;4.43;;
3309;SDS011;1667;53.238;10.394;2023-05-20T21:35:09;6.20;;;5.50;;
3309;SDS011;1667;53.238;10.394;2023-05-20T21:40:09;4.80;;;4.07;;
3309;SDS011;1667;53.238;10.394;2023-05-20T21:45:08;5.57;;;4.23;;
3309;SDS011;1667;53.238;10.394;2023-05-20T21:50:07;4.80;;;4.40;;
3309;SDS011;1667;53.238;10.394;2023-05-20T21:55:08;5.70;;;4.60;;
3309;SDS011;1667;53.238;10.394;2023-05-20T22:00:08;10.50;;;6.03;;
3309;SDS011;1667;53.238;10.394;2023-05-20T22:05:10;4.93;;;4.47;;
3309;SDS011;1667;53.238;10.394;2023-05-20T22:10:10;6.57;;;5.30;;
3309;SDS011;1667;53.238;10.394;2023-05-20T22:15:09;5.10;;;4.50;;
3309;SDS011;1667;53.238;10.394;2023-05-20T22:20:08;5.60;;;4.47;;
3309;SDS011;1667;53.238;10.394;2023-05-20T22:25:10;5.03;;;4.57;;
3309;SDS011;1667;53.238;10.394;2023-05-20T22:30:09;6.63;;;5.20;;
3309;SDS011;1667;53.238;10.394;2023-05-20T22:35:08;8.37;;;4.87;;
3309;SDS011;1667;53.238;10.394;2023-05-20T22:40:10;4.00;;;3.70;;
3309;SDS011;1667;53.238;10.394;2023-05-20T22:45:09;5.00;;;4.40;;
3309;SDS011;1667;53.238;10.394;2023-05-20T22:50:08;7.83;;;4.20;;
3309;SDS011;1667;53.238;10.394;2023-05-20T22:55:10;6.10;;;3.80;;
3309;SDS011;1667;53.238;10.394;2023-05-20T23:00:09;5.73;;;3.50;;
3309;SDS011;1667;53.238;10.394;2023-05-20T23:05:11;4.00;;;3.47;;
3309;SDS011;1667;53.238;10.394;2023-05-20T23:10:11;5.10;;;3.30;;
3309;SDS011;1667;53.238;10.394;2023-05-20T23:15:09;3.23;;;3.00;;
3309;SDS011;1667;53.238;10.394;2023-05-20T23:20:08;5.80;;;3.20;;
3309;SDS011;1667;53.238;10.394;2023-05-20T23:25:11;5.43;;;3.10;;
3309;SDS011;1667;53.238;10.394;2023-05-20T23:30:10;3.10;;;2.63;;
3309;SDS011;1667;53.238;10.394;2023-05-20T23:35:08;5.10;;;3.00;;
3309;SDS011;1667;53.238;10.394;2023-05-20T23:40:10;2.73;;;2.53;;
3309;SDS011;1667;53.238;10.394;2023-05-20T23:45:10;3.97;;;2.50;;
3309;SDS011;1667;53.238;10.394;2023-05-20T23:50:09;4.40;;;3.30;;
3309;SDS011;1667;53.238;10.394;2023-05-20T23:55:08;4.90;;;2.53;;
